Laird Hill, Texas
Current Conditions -  °F | °C
As of 6:53 PM on Monday 22 Dec 2014 (Local Time) from KGGG Reporting Station
Clear Clear  
Wind Chill: 59°   Ceiling: Unl
Heat Index: 59°   Visibility: 10mi
Dew Point: 50°   Wind: 7mph
Humidity: 72%   Direction: 290°WNW
Pressure: 29.6"   Gusts: NA
Location:  32.35°N, 94.91°W
Report Text: KGGG 230053Z 29006KT 10SM CLR 15/10 A2960 RMK AO2 SLP023 T01500100
Loading
Personal Weather Stations






























Interactive Weather Map New forecast layout! Learn more

10-Day Weather Forecast

Advertisements
Track Severe Weather on mobile